Hovedside
METAR-TAF:

METAR-TAF

Lufthavner :

Barrow, Alaska, USA

breddegrad: 71-17-07N, lengdegrad: 156-45-57W, høyde over havet: 13 m

Gjeldene værobservasjon

Denne rapporten ble laget for 1 time og 20 minutter siden, klokken 01:53 UTC
Vind 15 kt fra Øst
Temperatur 5°C
Luftfuktighet 70%
Trykk 1022 hPa
Sikt: 16.1 km
Skyfri himmel

METAR: PABR 140153Z 09015KT 10SM CLR 05/00 A3018

Tid: 19:13 (03:13 UTC)

Varsel

Denne rapporten ble laget for 3 timer og 53 minutter siden, klokken 23:20 UTC
Varsel gyldig fra 14. klokken 00 UTC til 14. klokken 24 UTC
Vind 17 kt fra Øst
Sikt: 10 km
Skyfri himmel
Fra 14. klokken 0900 UTC
Vind 10 kt fra Øst-sørøst
Sikt: 3.2 km
Brutte skyer i en høyde av 800 ft
dis,

TAF: PABR 132320Z 1400/1424 09017KT P6SM SKC FM140900 12010KT 2SM BR BKN008

Værobservasjoner og værvarsel for over 4000 flyplasser (METAR- og TAF-rapporter).

Tilgjengelige stasjoner er representert av de røde og gule prikkene på kartet.

Hold musepekeren over prikken for å se navnet på stasjonen.

Klikk så for å se værobservasjoner og -varsler.

For å forandre kartet kan du klikke på den grønne knappen med svart kryss for å zoome inn, på den grønne knappen med strek for å zoome ut, eller på de grønne pilene for å se tilstøtende kart.


METAR-TAF: